createdAt,value
2023-05-12T00:01:25.328Z,0.73
2023-05-12T00:03:53.837Z,0.60
2023-05-12T00:06:21.156Z,0.70
2023-05-12T00:08:48.001Z,0.70
2023-05-12T00:11:14.793Z,1.10
2023-05-12T00:13:41.586Z,1.07
2023-05-12T00:16:08.922Z,0.50
2023-05-12T00:18:36.044Z,0.50
2023-05-12T00:21:02.826Z,0.70
2023-05-12T00:23:29.585Z,0.50
2023-05-12T00:25:56.346Z,0.50
2023-05-12T00:28:23.102Z,0.50
2023-05-12T00:30:49.849Z,0.63
2023-05-12T00:33:17.263Z,1.40
2023-05-12T00:35:46.926Z,0.57
2023-05-12T00:38:14.030Z,0.63
2023-05-12T00:40:41.333Z,0.70
2023-05-12T00:43:08.609Z,0.50
2023-05-12T00:45:35.670Z,0.60
2023-05-12T00:48:03.535Z,0.50
2023-05-12T00:50:30.581Z,0.70
2023-05-12T00:52:59.640Z,0.70
2023-05-12T00:55:27.296Z,0.90
2023-05-12T00:57:55.304Z,0.90
2023-05-12T01:00:22.787Z,0.60
2023-05-12T01:02:49.891Z,0.90
2023-05-12T01:05:16.966Z,0.97
2023-05-12T01:07:46.576Z,0.70
2023-05-12T01:10:21.749Z,2.03
2023-05-12T01:12:48.820Z,1.73
2023-05-12T01:15:16.631Z,1.43
2023-05-12T01:17:52.580Z,1.30
2023-05-12T01:20:23.386Z,2.33
2023-05-12T01:22:50.511Z,2.40
2023-05-12T01:25:18.998Z,2.30
2023-05-12T01:27:46.634Z,2.50
2023-05-12T01:30:17.838Z,1.67
2023-05-12T01:32:45.407Z,2.43
2023-05-12T01:35:12.394Z,2.17
2023-05-12T01:37:44.442Z,2.40
2023-05-12T01:40:11.480Z,2.30
2023-05-12T01:42:42.308Z,2.40
2023-05-12T01:45:10.901Z,2.50
2023-05-12T01:47:38.095Z,2.40
2023-05-12T01:50:09.513Z,2.23
2023-05-12T01:52:36.845Z,2.00
2023-05-12T01:55:07.207Z,2.30
2023-05-12T01:57:40.295Z,2.27
2023-05-12T02:00:07.971Z,2.30
2023-05-12T02:02:41.538Z,2.23
2023-05-12T02:05:11.628Z,2.30
2023-05-12T02:07:39.432Z,3.57
2023-05-12T02:10:07.568Z,2.90
2023-05-12T02:12:34.661Z,2.43
2023-05-12T02:15:01.549Z,2.43
2023-05-12T02:17:29.619Z,2.17
2023-05-12T02:19:59.579Z,2.50
2023-05-12T02:22:26.450Z,1.97
2023-05-12T02:24:53.315Z,2.07
2023-05-12T02:27:20.638Z,2.07
2023-05-12T02:29:47.709Z,2.20
2023-05-12T02:32:15.447Z,3.90
2023-05-12T02:34:45.937Z,3.10
2023-05-12T02:37:12.705Z,3.10
2023-05-12T02:39:39.943Z,2.90
2023-05-12T02:42:07.159Z,2.77
2023-05-12T02:44:33.997Z,3.10
2023-05-12T02:47:00.828Z,2.87
2023-05-12T02:49:27.662Z,2.77
2023-05-12T02:51:55.266Z,3.90
2023-05-12T02:54:22.060Z,3.60
2023-05-12T02:56:49.046Z,3.33
2023-05-12T02:59:15.881Z,3.20
2023-05-12T03:01:42.776Z,4.73
2023-05-12T03:04:09.562Z,6.27
2023-05-12T03:06:36.508Z,3.77
2023-05-12T03:09:03.790Z,4.00
2023-05-12T03:11:30.961Z,4.57
2023-05-12T03:13:57.740Z,4.10
2023-05-12T03:16:24.534Z,4.93
2023-05-12T03:18:51.422Z,4.30
2023-05-12T03:21:18.363Z,4.43
2023-05-12T03:23:45.586Z,5.57
2023-05-12T03:26:12.389Z,5.13
2023-05-12T03:28:39.376Z,6.23
2023-05-12T03:31:06.203Z,5.43
2023-05-12T03:33:33.100Z,6.30
2023-05-12T03:36:00.169Z,5.23
2023-05-12T03:38:27.376Z,5.20
2023-05-12T03:41:06.589Z,8.23
2023-05-12T03:43:34.702Z,8.30
2023-05-12T03:46:01.978Z,8.60
2023-05-12T03:48:28.964Z,8.33
2023-05-12T03:50:56.442Z,7.27
2023-05-12T03:53:23.203Z,6.13
2023-05-12T03:55:51.181Z,6.43
2023-05-12T03:58:18.280Z,5.77
2023-05-12T04:00:46.701Z,6.13
2023-05-12T04:03:13.567Z,8.50
2023-05-12T04:05:41.319Z,8.20
2023-05-12T04:08:11.093Z,11.40
2023-05-12T04:10:41.940Z,11.60
2023-05-12T04:13:08.997Z,11.00
2023-05-12T04:15:35.850Z,9.97
2023-05-12T04:18:03.844Z,9.60
2023-05-12T04:20:30.729Z,9.97
2023-05-12T04:22:57.478Z,8.80
2023-05-12T04:25:24.311Z,8.43
2023-05-12T04:27:51.128Z,7.90
2023-05-12T04:30:18.110Z,7.40
2023-05-12T04:32:45.368Z,7.27
2023-05-12T04:35:12.145Z,6.90
2023-05-12T04:37:39.294Z,8.37
2023-05-12T04:40:08.867Z,6.53
2023-05-12T04:42:36.171Z,7.80
2023-05-12T04:45:03.436Z,7.00
2023-05-12T04:47:30.487Z,7.70
2023-05-12T04:49:57.253Z,7.10
2023-05-12T04:52:24.953Z,6.80
2023-05-12T04:54:52.163Z,6.63
2023-05-12T04:57:19.270Z,5.67
2023-05-12T04:59:46.078Z,6.40
2023-05-12T05:02:13.382Z,6.00
2023-05-12T05:04:40.501Z,6.30
2023-05-12T05:07:07.900Z,5.90
2023-05-12T05:09:36.495Z,5.93
2023-05-12T05:12:03.726Z,5.43
2023-05-12T05:14:30.868Z,5.67
2023-05-12T05:16:57.864Z,6.67
2023-05-12T05:19:35.603Z,6.73
2023-05-12T05:22:12.294Z,6.07
2023-05-12T05:24:39.078Z,7.10
2023-05-12T05:27:06.144Z,6.40
2023-05-12T05:29:32.868Z,6.90
2023-05-12T05:31:59.649Z,5.77
2023-05-12T05:34:26.636Z,5.93
2023-05-12T05:36:53.466Z,6.10
2023-05-12T05:39:20.388Z,5.90
2023-05-12T05:41:47.158Z,6.87
2023-05-12T05:44:14.293Z,6.27
2023-05-12T05:46:41.178Z,6.27
2023-05-12T05:49:08.122Z,6.10
2023-05-12T05:51:35.029Z,6.80
2023-05-12T05:54:01.817Z,7.53
2023-05-12T05:56:30.310Z,7.60
2023-05-12T05:58:57.091Z,6.67
2023-05-12T06:01:23.900Z,7.23
2023-05-12T06:03:50.795Z,7.83
2023-05-12T06:06:18.147Z,7.23
2023-05-12T06:08:45.819Z,8.53
2023-05-12T06:11:12.732Z,7.20
2023-05-12T06:13:39.538Z,7.53
2023-05-12T06:16:06.423Z,7.87
2023-05-12T06:18:37.675Z,8.23
2023-05-12T06:21:05.612Z,8.00
2023-05-12T06:23:32.505Z,6.87
2023-05-12T06:25:59.273Z,7.53
2023-05-12T06:28:27.895Z,9.83
2023-05-12T06:30:54.637Z,12.90
2023-05-12T06:33:21.539Z,13.60
2023-05-12T06:35:48.457Z,13.67
2023-05-12T06:38:15.234Z,14.83
2023-05-12T06:40:44.445Z,15.17
2023-05-12T06:43:11.268Z,16.63
2023-05-12T06:45:38.042Z,16.53
2023-05-12T06:48:06.845Z,15.47
2023-05-12T06:50:33.606Z,15.53
2023-05-12T06:53:01.014Z,14.53
2023-05-12T06:55:28.190Z,16.37
2023-05-12T06:57:56.148Z,15.73
2023-05-12T07:00:24.364Z,14.30
2023-05-12T07:02:51.415Z,15.37
2023-05-12T07:05:19.016Z,14.57
2023-05-12T07:07:46.063Z,15.27
2023-05-12T07:10:12.900Z,14.97
2023-05-12T07:12:39.890Z,12.33
2023-05-12T07:15:08.425Z,13.40
2023-05-12T07:17:35.439Z,13.37
2023-05-12T07:20:02.976Z,12.63
2023-05-12T07:22:32.279Z,12.87
2023-05-12T07:24:59.134Z,11.03
2023-05-12T07:27:25.943Z,11.73
2023-05-12T07:29:52.680Z,12.20
2023-05-12T07:32:19.435Z,9.60
2023-05-12T07:34:46.213Z,13.30
2023-05-12T07:37:12.992Z,14.97
2023-05-12T07:39:39.819Z,9.90
2023-05-12T07:42:06.665Z,10.90
2023-05-12T07:44:33.538Z,8.83
2023-05-12T07:47:01.137Z,9.30
2023-05-12T07:49:27.976Z,9.33
2023-05-12T07:51:54.777Z,10.90
2023-05-12T07:54:22.270Z,10.80
2023-05-12T07:56:49.115Z,10.03
2023-05-12T07:59:16.570Z,7.80
2023-05-12T08:01:43.483Z,7.83
2023-05-12T08:04:10.344Z,10.03
2023-05-12T08:06:37.229Z,9.23
2023-05-12T08:09:04.089Z,11.90
2023-05-12T08:11:31.019Z,8.53
2023-05-12T08:13:57.800Z,8.60
2023-05-12T08:16:24.665Z,9.80
2023-05-12T08:18:51.993Z,9.40
2023-05-12T08:21:18.923Z,10.07
2023-05-12T08:23:45.824Z,10.30
2023-05-12T08:26:12.615Z,13.70
2023-05-12T08:28:39.405Z,9.67
2023-05-12T08:31:06.934Z,9.80
2023-05-12T08:33:36.978Z,9.93
2023-05-12T08:36:04.264Z,9.93
2023-05-12T08:38:32.589Z,9.57
2023-05-12T08:41:22.407Z,9.30
2023-05-12T08:43:52.870Z,8.30
2023-05-12T08:46:20.909Z,8.77
2023-05-12T08:48:50.640Z,7.93
2023-05-12T08:51:19.165Z,7.67
2023-05-12T08:53:47.631Z,7.30
2023-05-12T08:58:46.335Z,6.07
2023-05-12T09:01:14.941Z,4.83
2023-05-12T09:03:42.114Z,6.03
2023-05-12T09:06:11.432Z,6.87
2023-05-12T09:08:39.160Z,5.33
2023-05-12T09:11:05.916Z,5.47
2023-05-12T09:13:52.209Z,5.20
2023-05-12T09:16:23.603Z,8.17
2023-05-12T09:18:53.315Z,4.47
2023-05-12T09:21:21.058Z,7.93
2023-05-12T09:23:59.649Z,4.50
2023-05-12T09:26:28.202Z,4.50
2023-05-12T09:29:06.405Z,7.57
2023-05-12T09:31:33.303Z,6.67
2023-05-12T09:34:02.257Z,7.00
2023-05-12T09:36:29.116Z,5.00
2023-05-12T09:39:06.885Z,7.33
2023-05-12T09:41:41.689Z,5.70
2023-05-12T09:44:10.008Z,5.10
2023-05-12T09:46:39.664Z,5.90
2023-05-12T09:49:06.558Z,5.60
2023-05-12T09:51:33.424Z,8.37
2023-05-12T09:54:00.962Z,6.67
2023-05-12T09:56:29.673Z,7.30
2023-05-12T09:58:57.628Z,4.23
2023-05-12T10:01:25.705Z,7.67
2023-05-12T10:03:57.660Z,4.43
2023-05-12T10:06:28.353Z,8.23
2023-05-12T10:09:20.472Z,9.23
2023-05-12T10:11:49.221Z,5.00
2023-05-12T10:14:18.061Z,5.23
2023-05-12T10:16:46.717Z,5.23
2023-05-12T10:19:14.589Z,4.77
2023-05-12T10:21:43.464Z,5.10
2023-05-12T10:24:10.546Z,5.17
2023-05-12T10:26:39.685Z,5.90
2023-05-12T10:29:07.002Z,8.90
2023-05-12T10:31:36.075Z,6.13
2023-05-12T10:34:03.921Z,4.97
2023-05-12T10:36:30.900Z,6.23
2023-05-12T10:39:06.355Z,5.10
2023-05-12T10:41:35.032Z,4.77
2023-05-12T10:44:02.319Z,6.30
2023-05-12T10:46:30.273Z,5.23
2023-05-12T10:49:08.928Z,5.03
2023-05-12T10:51:45.047Z,4.70
2023-05-12T10:54:20.286Z,4.70
2023-05-12T10:56:48.070Z,5.10
2023-05-12T10:59:20.066Z,4.90
2023-05-12T11:02:07.048Z,4.40
2023-05-12T11:05:00.359Z,7.63
2023-05-12T11:07:30.424Z,8.03
2023-05-12T11:10:01.222Z,6.03
2023-05-12T11:12:32.706Z,4.63
2023-05-12T11:15:01.682Z,4.83
2023-05-12T11:17:28.858Z,4.80
2023-05-12T11:19:56.324Z,5.93
2023-05-12T11:22:23.959Z,4.60
2023-05-12T11:24:52.860Z,5.20
2023-05-12T11:27:22.876Z,7.27
2023-05-12T11:29:58.368Z,4.70
2023-05-12T11:32:25.197Z,5.37
2023-05-12T11:34:51.984Z,4.97
2023-05-12T11:37:21.142Z,4.43
2023-05-12T11:39:48.397Z,5.83
2023-05-12T11:42:17.756Z,6.43
2023-05-12T11:44:50.490Z,5.13
2023-05-12T11:47:20.014Z,5.80
2023-05-12T11:50:24.508Z,4.40
2023-05-12T11:52:52.743Z,4.80
2023-05-12T11:55:22.407Z,7.63
2023-05-12T11:57:58.336Z,6.30
2023-05-12T12:00:35.900Z,6.87
2023-05-12T12:03:11.207Z,8.07
2023-05-12T12:05:39.278Z,5.97
2023-05-12T12:08:08.374Z,5.30
2023-05-12T12:10:35.908Z,5.90
2023-05-12T12:13:02.678Z,4.97
2023-05-12T12:15:30.089Z,6.23
2023-05-12T12:17:57.159Z,6.50
2023-05-12T12:20:24.940Z,7.77
2023-05-12T12:22:52.764Z,6.07
2023-05-12T12:25:21.107Z,8.97
2023-05-12T12:27:49.100Z,5.27
2023-05-12T12:30:17.085Z,7.50
2023-05-12T12:32:44.725Z,5.10
2023-05-12T12:35:13.032Z,6.17
2023-05-12T12:37:40.857Z,4.83
2023-05-12T12:40:09.913Z,3.73
2023-05-12T12:42:38.232Z,3.53
2023-05-12T12:45:05.920Z,2.90
2023-05-12T12:47:33.004Z,2.43
2023-05-12T12:50:00.020Z,2.33
2023-05-12T12:52:26.888Z,3.53
2023-05-12T12:54:54.273Z,2.47
2023-05-12T12:57:22.207Z,3.37
2023-05-12T12:59:49.695Z,2.20
2023-05-12T13:02:16.635Z,2.67
2023-05-12T13:04:43.480Z,2.30
2023-05-12T13:07:10.550Z,2.57
2023-05-12T13:09:37.408Z,2.03
2023-05-12T13:12:05.002Z,1.97
2023-05-12T13:14:31.860Z,2.03
2023-05-12T13:16:58.739Z,6.20
2023-05-12T13:19:25.546Z,3.80
2023-05-12T13:21:52.256Z,2.77
2023-05-12T13:24:19.035Z,2.30
2023-05-12T13:26:45.776Z,2.00
2023-05-12T13:29:12.760Z,3.50
2023-05-12T13:31:41.208Z,1.87
2023-05-12T13:34:08.127Z,4.93
2023-05-12T13:36:35.543Z,2.93
2023-05-12T13:39:03.712Z,3.17
2023-05-12T13:41:30.535Z,2.43
2023-05-12T13:43:57.438Z,2.57
2023-05-12T13:46:24.370Z,2.40
2023-05-12T13:48:52.480Z,3.43
2023-05-12T13:51:19.954Z,2.60
2023-05-12T13:53:46.809Z,5.20
2023-05-12T13:56:17.576Z,3.87
2023-05-12T13:58:44.410Z,2.73
2023-05-12T14:01:11.769Z,3.20
2023-05-12T14:03:39.019Z,3.40
2023-05-12T14:06:05.977Z,3.13
2023-05-12T14:08:32.822Z,3.03
2023-05-12T14:10:59.896Z,3.50
2023-05-12T14:13:26.715Z,3.23
2023-05-12T14:15:54.034Z,3.33
2023-05-12T14:18:21.317Z,3.43
2023-05-12T14:20:48.370Z,3.20
2023-05-12T14:23:15.660Z,3.20
2023-05-12T14:25:42.617Z,3.20
2023-05-12T14:28:09.460Z,7.07
2023-05-12T14:30:37.452Z,3.90
2023-05-12T14:33:04.432Z,3.10
2023-05-12T14:35:32.015Z,3.60
2023-05-12T14:37:58.812Z,5.50
2023-05-12T14:40:26.668Z,3.63
2023-05-12T14:42:54.071Z,8.73
2023-05-12T14:45:21.173Z,3.53
2023-05-12T14:47:48.242Z,2.70
2023-05-12T14:50:15.172Z,2.90
2023-05-12T14:52:42.285Z,3.37
2023-05-12T14:55:13.943Z,2.93
2023-05-12T14:57:44.560Z,3.20
2023-05-12T15:00:13.547Z,3.67
2023-05-12T15:02:42.130Z,4.83
2023-05-12T15:05:10.186Z,3.30
2023-05-12T15:07:37.246Z,3.50
2023-05-12T15:10:05.744Z,4.50
2023-05-12T15:12:33.341Z,4.30
2023-05-12T15:15:02.200Z,3.93
2023-05-12T15:17:29.178Z,4.30
2023-05-12T15:19:56.203Z,3.80
2023-05-12T15:22:23.252Z,3.83
2023-05-12T15:24:50.036Z,3.87
2023-05-12T15:27:16.809Z,6.97
2023-05-12T15:29:43.885Z,6.10
2023-05-12T15:32:10.734Z,5.20
2023-05-12T15:34:37.647Z,4.73
2023-05-12T15:37:04.691Z,5.83
2023-05-12T15:39:31.614Z,5.13
2023-05-12T15:41:59.056Z,4.73
2023-05-12T15:44:25.855Z,4.27
2023-05-12T15:46:53.007Z,6.80
2023-05-12T15:49:19.972Z,6.90
2023-05-12T15:51:46.774Z,5.77
2023-05-12T15:54:13.646Z,3.80
2023-05-12T15:56:40.390Z,4.07
2023-05-12T15:59:07.435Z,5.73
2023-05-12T16:01:34.274Z,4.50
2023-05-12T16:04:01.270Z,4.10
2023-05-12T16:06:28.253Z,4.10
2023-05-12T16:08:55.009Z,3.17
2023-05-12T16:11:22.332Z,4.87
2023-05-12T16:13:51.569Z,2.00
2023-05-12T16:16:18.496Z,1.57
2023-05-12T16:18:45.458Z,1.27
2023-05-12T16:21:12.765Z,1.63
2023-05-12T16:23:39.582Z,1.60
2023-05-12T16:26:06.389Z,1.53
2023-05-12T16:28:34.555Z,1.57
2023-05-12T16:31:02.401Z,1.40
2023-05-12T16:33:29.852Z,2.00
2023-05-12T16:35:57.439Z,1.50
2023-05-12T16:38:24.278Z,1.40
2023-05-12T16:40:51.303Z,1.60
2023-05-12T16:43:18.078Z,3.80
2023-05-12T16:45:44.933Z,0.93
2023-05-12T16:48:11.721Z,1.10
2023-05-12T16:50:38.472Z,1.17
2023-05-12T16:53:05.245Z,1.93
2023-05-12T16:55:31.981Z,3.50
2023-05-12T16:57:58.819Z,3.17
2023-05-12T17:00:25.969Z,1.80
2023-05-12T17:02:53.268Z,1.50
2023-05-12T17:05:21.236Z,1.60
2023-05-12T17:07:48.319Z,2.60
2023-05-12T17:10:15.240Z,5.00
2023-05-12T17:12:42.404Z,3.20
2023-05-12T17:15:10.428Z,3.80
2023-05-12T17:17:37.540Z,5.70
2023-05-12T17:20:05.951Z,2.63
2023-05-12T17:22:34.884Z,2.00
2023-05-12T17:25:01.643Z,2.43
2023-05-12T17:27:28.422Z,2.50
2023-05-12T17:29:55.249Z,3.33
2023-05-12T17:32:22.120Z,4.60
2023-05-12T17:34:51.962Z,23.60
2023-05-12T17:37:18.874Z,16.77
2023-05-12T17:39:46.206Z,30.30
2023-05-12T17:42:13.095Z,22.10
2023-05-12T17:44:39.870Z,8.57
2023-05-12T17:47:07.487Z,3.90
2023-05-12T17:49:34.414Z,3.00
2023-05-12T17:52:01.176Z,3.13
2023-05-12T17:54:28.063Z,1.50
2023-05-12T17:56:54.778Z,2.10
2023-05-12T17:59:21.866Z,2.63
2023-05-12T18:01:49.045Z,2.50
2023-05-12T18:04:15.962Z,2.33
2023-05-12T18:06:42.801Z,3.30
2023-05-12T18:09:10.058Z,1.73
2023-05-12T18:11:37.013Z,2.63
2023-05-12T18:14:05.825Z,2.60
2023-05-12T18:16:33.356Z,1.93
2023-05-12T18:19:00.457Z,3.27
2023-05-12T18:21:27.296Z,2.30
2023-05-12T18:23:54.267Z,2.10
2023-05-12T18:26:21.353Z,1.57
2023-05-12T18:28:48.242Z,2.23
2023-05-12T18:31:16.660Z,2.00
2023-05-12T18:33:46.884Z,3.13
2023-05-12T18:36:13.825Z,3.10
2023-05-12T18:38:40.574Z,3.80
2023-05-12T18:41:07.808Z,3.37
2023-05-12T18:43:34.987Z,4.70
2023-05-12T18:46:02.560Z,2.97
2023-05-12T18:48:29.634Z,2.83
2023-05-12T18:50:56.819Z,2.60
2023-05-12T18:53:23.581Z,1.70
2023-05-12T18:55:51.588Z,2.10
2023-05-12T18:58:18.668Z,2.30
2023-05-12T19:00:45.751Z,2.00
2023-05-12T19:03:12.552Z,2.00
2023-05-12T19:05:44.261Z,1.73
2023-05-12T19:08:12.537Z,5.63
2023-05-12T19:10:40.141Z,1.87
2023-05-12T19:13:08.085Z,2.20
2023-05-12T19:15:35.811Z,2.80
2023-05-12T19:18:02.552Z,2.20
2023-05-12T19:20:30.751Z,2.47
2023-05-12T19:22:59.645Z,4.00
2023-05-12T19:25:26.459Z,3.20
2023-05-12T19:27:53.352Z,2.77
2023-05-12T19:30:20.573Z,2.60
2023-05-12T19:32:47.662Z,2.50
2023-05-12T19:35:15.054Z,2.63
2023-05-12T19:37:42.312Z,2.23
2023-05-12T19:40:09.431Z,2.40
2023-05-12T19:42:37.934Z,2.20
2023-05-12T19:45:05.520Z,3.70
2023-05-12T19:47:33.618Z,2.20
2023-05-12T19:50:00.947Z,2.23
2023-05-12T19:52:30.619Z,1.90
2023-05-12T19:54:57.780Z,1.70
2023-05-12T19:57:24.569Z,2.20
2023-05-12T19:59:51.364Z,2.00
2023-05-12T20:02:18.353Z,2.67
2023-05-12T20:04:45.496Z,2.40
2023-05-12T20:07:12.609Z,2.10
2023-05-12T20:09:39.389Z,2.30
2023-05-12T20:12:08.028Z,2.63
2023-05-12T20:14:35.694Z,2.30
2023-05-12T20:17:05.633Z,2.33
2023-05-12T20:19:33.080Z,2.60
2023-05-12T20:22:00.037Z,3.00
2023-05-12T20:24:26.909Z,2.90
2023-05-12T20:26:54.194Z,3.50
2023-05-12T20:29:21.010Z,2.70
2023-05-12T20:31:51.987Z,4.67
2023-05-12T20:34:19.331Z,4.20
2023-05-12T20:36:46.993Z,3.27
2023-05-12T20:39:15.098Z,3.47
2023-05-12T20:41:43.143Z,4.90
2023-05-12T20:44:10.090Z,3.13
2023-05-12T20:46:38.556Z,3.43
2023-05-12T20:49:06.237Z,4.07
2023-05-12T20:51:33.386Z,5.20
2023-05-12T20:54:00.418Z,3.80
2023-05-12T20:56:27.283Z,4.03
2023-05-12T20:58:54.191Z,4.40
2023-05-12T21:01:21.127Z,4.87
2023-05-12T21:03:48.764Z,3.60
2023-05-12T21:06:15.819Z,3.17
2023-05-12T21:08:42.626Z,3.53
2023-05-12T21:11:17.007Z,2.97
2023-05-12T21:13:45.513Z,3.27
2023-05-12T21:16:12.323Z,3.00
2023-05-12T21:18:39.126Z,3.07
2023-05-12T21:21:08.832Z,4.63
2023-05-12T21:23:38.390Z,3.30
2023-05-12T21:26:06.333Z,3.43
2023-05-12T21:28:33.132Z,3.50
2023-05-12T21:30:59.914Z,3.20
2023-05-12T21:33:26.666Z,3.37
2023-05-12T21:35:53.639Z,3.23
2023-05-12T21:38:20.895Z,3.17
2023-05-12T21:40:56.208Z,6.23
2023-05-12T21:43:23.215Z,2.60
2023-05-12T21:45:50.494Z,2.60
2023-05-12T21:48:18.155Z,3.07
2023-05-12T21:50:44.922Z,3.47
2023-05-12T21:53:11.796Z,3.57
2023-05-12T21:55:40.611Z,2.70
2023-05-12T21:58:07.368Z,2.30
2023-05-12T22:00:34.129Z,3.33
2023-05-12T22:03:01.082Z,2.57
2023-05-12T22:05:28.016Z,2.10
2023-05-12T22:07:54.896Z,4.00
2023-05-12T22:10:21.792Z,2.30
2023-05-12T22:12:48.708Z,1.93
2023-05-12T22:15:15.545Z,2.97
2023-05-12T22:17:42.337Z,2.20
2023-05-12T22:20:09.600Z,2.60
2023-05-12T22:22:36.332Z,2.07
2023-05-12T22:25:04.634Z,2.30
2023-05-12T22:27:31.409Z,3.80
2023-05-12T22:29:58.202Z,2.30
2023-05-12T22:32:25.008Z,2.07
2023-05-12T22:34:54.967Z,1.90
2023-05-12T22:37:22.353Z,3.13
2023-05-12T22:39:49.229Z,2.83
2023-05-12T22:42:16.069Z,1.50
2023-05-12T22:44:42.804Z,1.93
2023-05-12T22:47:09.781Z,4.33
2023-05-12T22:49:36.603Z,1.80
2023-05-12T22:52:03.454Z,1.90
2023-05-12T22:54:30.174Z,2.10
2023-05-12T22:56:56.970Z,1.73
2023-05-12T22:59:23.742Z,2.20
2023-05-12T23:01:50.543Z,1.60
2023-05-12T23:04:17.417Z,1.57
2023-05-12T23:06:44.185Z,1.53
2023-05-12T23:09:11.064Z,1.83
2023-05-12T23:11:37.828Z,1.60
2023-05-12T23:14:04.549Z,1.77
2023-05-12T23:16:31.385Z,3.07
2023-05-12T23:18:58.197Z,2.43
2023-05-12T23:21:25.004Z,3.17
2023-05-12T23:23:51.798Z,2.20
2023-05-12T23:26:19.042Z,2.00
2023-05-12T23:28:45.807Z,3.87
2023-05-12T23:31:12.715Z,2.23
2023-05-12T23:33:39.558Z,4.63
2023-05-12T23:36:06.729Z,3.83
2023-05-12T23:38:33.519Z,2.20
2023-05-12T23:41:00.244Z,2.13
2023-05-12T23:43:26.985Z,2.20
2023-05-12T23:45:53.949Z,4.33
2023-05-12T23:48:20.761Z,2.80
2023-05-12T23:50:47.608Z,3.23
2023-05-12T23:53:14.757Z,2.30
2023-05-12T23:55:41.784Z,2.07
2023-05-12T23:58:10.670Z,1.77
